TimeEDT,TemperatureF,Dew PointF,Humidity,Sea Level PressureIn,VisibilityMPH,Wind Direction,Wind SpeedMPH,Gust SpeedMPH,PrecipitationIn,Events,Conditions,WindDirDegrees,DateUTC
12:02 AM,32.0,24.8,75,30.17,10.0,Calm,Calm,-,N/A,,Clear,0,2013-04-03 04:02:00
12:22 AM,32.0,26.6,80,30.18,10.0,SSE,3.5,-,N/A,,Clear,160,2013-04-03 04:22:00
12:42 AM,30.2,24.8,80,30.18,10.0,Calm,Calm,-,N/A,,Clear,0,2013-04-03 04:42:00
1:01 AM,32.0,26.6,80,30.18,10.0,Calm,Calm,-,N/A,,Clear,0,2013-04-03 05:01:00
1:22 AM,32.0,24.8,75,30.19,10.0,Calm,Calm,-,N/A,,Clear,0,2013-04-03 05:22:00
1:42 AM,30.2,24.8,80,30.19,10.0,Calm,Calm,-,N/A,,Clear,0,2013-04-03 05:42:00
2:02 AM,33.8,23.0,65,30.18,10.0,NW,6.9,-,N/A,,Clear,320,2013-04-03 06:02:00
2:22 AM,39.2,19.4,45,30.17,10.0,NNW,11.5,-,N/A,,Clear,330,2013-04-03 06:22:00
3:02 AM,37.4,19.4,48,30.19,10.0,Calm,Calm,-,N/A,,Clear,0,2013-04-03 07:02:00
3:23 AM,33.8,23.0,65,30.20,10.0,Calm,Calm,-,N/A,,Clear,0,2013-04-03 07:23:00
3:43 AM,32.0,21.2,64,30.20,10.0,Calm,Calm,-,N/A,,Clear,0,2013-04-03 07:43:00
4:03 AM,32.0,23.0,69,30.20,10.0,Calm,Calm,-,N/A,,Clear,0,2013-04-03 08:03:00
4:23 AM,30.2,21.2,69,30.21,10.0,Calm,Calm,-,N/A,,Clear,0,2013-04-03 08:23:00
4:43 AM,30.2,23.0,75,30.21,10.0,Calm,Calm,-,N/A,,Clear,0,2013-04-03 08:43:00
5:03 AM,30.2,21.2,69,30.21,10.0,Calm,Calm,-,N/A,,Clear,0,2013-04-03 09:03:00
5:23 AM,33.8,21.2,60,30.21,10.0,NNW,4.6,-,N/A,,Clear,330,2013-04-03 09:23:00
5:43 AM,32.0,21.2,64,30.22,10.0,Calm,Calm,-,N/A,,Clear,0,2013-04-03 09:43:00
6:03 AM,30.2,23.0,75,30.22,10.0,SSW,3.5,-,N/A,,Clear,200,2013-04-03 10:03:00
6:23 AM,28.4,23.0,80,30.23,10.0,Calm,Calm,-,N/A,,Clear,0,2013-04-03 10:23:00
6:43 AM,30.2,23.0,75,30.24,10.0,Calm,Calm,-,N/A,,Clear,0,2013-04-03 10:43:00
7:03 AM,30.2,23.0,75,30.24,10.0,Calm,Calm,-,N/A,,Clear,0,2013-04-03 11:03:00
7:23 AM,30.2,23.0,75,30.25,10.0,Calm,Calm,-,N/A,,Clear,0,2013-04-03 11:23:00
7:43 AM,30.2,24.8,80,30.25,10.0,Calm,Calm,-,N/A,,Clear,0,2013-04-03 11:43:00
8:03 AM,32.0,26.6,80,30.25,10.0,Calm,Calm,-,N/A,,Clear,0,2013-04-03 12:03:00
8:23 AM,35.6,28.4,75,30.25,10.0,SSW,3.5,-,N/A,,Clear,210,2013-04-03 12:23:00
9:03 AM,41.0,19.4,42,30.25,10.0,West,10.4,-,N/A,,Clear,270,2013-04-03 13:03:00
9:23 AM,42.8,19.4,39,30.25,10.0,West,9.2,-,N/A,,Clear,280,2013-04-03 13:23:00
9:43 AM,42.8,17.6,36,30.26,10.0,NW,13.8,18.4,N/A,,Clear,310,2013-04-03 13:43:00
10:03 AM,42.8,17.6,36,30.26,10.0,NW,13.8,19.6,N/A,,Clear,310,2013-04-03 14:03:00
10:23 AM,42.8,17.6,36,30.25,10.0,NW,13.8,19.6,N/A,,Clear,320,2013-04-03 14:23:00
10:43 AM,42.8,17.6,36,30.26,10.0,NW,13.8,19.6,N/A,,Clear,310,2013-04-03 14:43:00
11:03 AM,44.6,17.6,34,30.26,10.0,NW,13.8,19.6,N/A,,Clear,320,2013-04-03 15:03:00
11:23 AM,44.6,21.2,39,30.26,10.0,NW,8.1,21.9,N/A,,Clear,310,2013-04-03 15:23:00
11:44 AM,46.4,21.2,37,30.25,10.0,NW,9.2,17.3,N/A,,Clear,320,2013-04-03 15:44:00
12:04 PM,46.4,19.4,34,30.25,10.0,NNW,12.7,21.9,N/A,,Clear,330,2013-04-03 16:04:00
12:24 PM,46.4,21.2,37,30.23,10.0,NW,12.7,17.3,N/A,,Clear,310,2013-04-03 16:24:00
12:44 PM,46.4,19.4,34,30.22,10.0,WNW,15.0,19.6,N/A,,Clear,300,2013-04-03 16:44:00
1:04 PM,50.0,23.0,35,30.22,10.0,NNW,12.7,17.3,N/A,,Clear,340,2013-04-03 17:04:00
1:24 PM,46.4,19.4,34,30.21,10.0,NNW,9.2,21.9,N/A,,Clear,340,2013-04-03 17:24:00
1:44 PM,50.0,19.4,30,30.20,10.0,NW,12.7,20.7,N/A,,Clear,310,2013-04-03 17:44:00
2:04 PM,50.0,21.2,32,30.19,10.0,North,13.8,23.0,N/A,,Clear,350,2013-04-03 18:04:00
2:24 PM,50.0,19.4,30,30.19,10.0,NNW,16.1,23.0,N/A,,Clear,340,2013-04-03 18:24:00
2:44 PM,50.0,17.6,28,30.19,10.0,NW,15.0,23.0,N/A,,Clear,320,2013-04-03 18:44:00
3:04 PM,50.0,17.6,28,30.19,10.0,NW,11.5,23.0,N/A,,Clear,320,2013-04-03 19:04:00
3:24 PM,50.0,17.6,28,30.19,10.0,WNW,10.4,21.9,N/A,,Clear,300,2013-04-03 19:24:00
3:44 PM,50.0,17.6,28,30.19,10.0,NNW,11.5,19.6,N/A,,Clear,330,2013-04-03 19:44:00
4:04 PM,50.0,17.6,28,30.20,10.0,NW,15.0,23.0,N/A,,Clear,310,2013-04-03 20:04:00
4:24 PM,50.0,17.6,28,30.20,10.0,WNW,12.7,24.2,N/A,,Clear,300,2013-04-03 20:24:00
5:04 PM,50.0,17.6,28,30.21,10.0,NNW,16.1,21.9,N/A,,Clear,330,2013-04-03 21:04:00
5:24 PM,50.0,17.6,28,30.22,10.0,NW,10.4,17.3,N/A,,Clear,310,2013-04-03 21:24:00
5:43 PM,50.0,17.6,28,30.22,10.0,NNW,17.3,21.9,N/A,,Clear,330,2013-04-03 21:43:00
6:04 PM,50.0,17.6,28,30.23,10.0,NW,11.5,20.7,N/A,,Clear,320,2013-04-03 22:04:00
6:24 PM,50.0,19.4,30,30.24,10.0,NNW,13.8,17.3,N/A,,Clear,330,2013-04-03 22:24:00
6:44 PM,50.0,19.4,30,30.25,10.0,NNW,12.7,20.7,N/A,,Clear,340,2013-04-03 22:44:00
7:04 PM,46.4,17.6,32,30.26,10.0,NNW,16.1,23.0,N/A,,Clear,340,2013-04-03 23:04:00
7:24 PM,46.4,17.6,32,30.27,10.0,NNW,18.4,26.5,N/A,,Clear,340,2013-04-03 23:24:00
7:44 PM,44.6,17.6,34,30.28,10.0,North,12.7,21.9,N/A,,Clear,350,2013-04-03 23:44:00
8:05 PM,44.6,17.6,34,30.29,10.0,NNW,15.0,23.0,N/A,,Clear,340,2013-04-04 00:05:00
8:25 PM,42.8,15.8,34,30.30,10.0,NNW,13.8,24.2,N/A,,Clear,340,2013-04-04 00:25:00
8:45 PM,42.8,15.8,34,30.31,10.0,NNW,13.8,21.9,N/A,,Clear,340,2013-04-04 00:45:00
9:05 PM,42.8,14.0,31,30.32,10.0,NNW,11.5,19.6,N/A,,Clear,340,2013-04-04 01:05:00
9:25 PM,41.0,14.0,33,30.32,10.0,North,11.5,19.6,N/A,,Clear,350,2013-04-04 01:25:00
9:45 PM,41.0,14.0,33,30.34,10.0,North,10.4,16.1,N/A,,Clear,350,2013-04-04 01:45:00
10:05 PM,41.0,15.8,36,30.34,10.0,North,12.7,18.4,N/A,,Clear,360,2013-04-04 02:05:00
10:25 PM,41.0,17.6,39,30.34,10.0,North,11.5,-,N/A,,Clear,350,2013-04-04 02:25:00
10:45 PM,41.0,17.6,39,30.34,10.0,NNW,12.7,21.9,N/A,,Clear,340,2013-04-04 02:45:00
11:05 PM,39.2,19.4,45,30.34,10.0,NNW,10.4,17.3,N/A,,Clear,340,2013-04-04 03:05:00
11:25 PM,39.2,19.4,45,30.35,10.0,NNW,10.4,17.3,N/A,,Clear,340,2013-04-04 03:25:00
11:45 PM,39.2,21.2,49,30.36,10.0,North,9.2,-,N/A,,Clear,350,2013-04-04 03:45:00